< < Back
Terminal Aerodrome Forecast


Current Version              Previous Versions:   1  2  3  4  5  6  7  8  9  

Terminal Aerodrome Forecast

405
FTUS44 KMRX 310528
TAFCHA
TAF
KCHA 310528Z 3106/0106 VRB03KT P6SM BKN050
     FM310800 00000KT P6SM BKN035
     FM311000 00000KT P6SM OVC025
     FM311500 00000KT P6SM BKN035
     FM311800 04004KT P6SM SCT040 BKN150
     FM010100 02003KT P6SM FEW050 SCT250=

Latest METAR

643
SAUS80 KWBC 311700
MTRCHA
METAR KCHA 311653Z 32005KT 10SM SCT032 BKN200 BKN250 27/18 A3015 RMK AO2
SLP203 T02720183


USA.gov is the U.S. government's official web portal to all federal, state and local government web resources and services.